sensor_id;sensor_type;location;lat;lon;timestamp;temperature;humidity
52159;DHT22;38145;53.182;6.284;2022-07-24T00:00:10;16.80;99.90
52159;DHT22;38145;53.182;6.284;2022-07-24T00:02:37;16.90;99.90
52159;DHT22;38145;53.182;6.284;2022-07-24T00:05:03;16.80;99.90
52159;DHT22;38145;53.182;6.284;2022-07-24T00:07:30;16.80;99.90
52159;DHT22;38145;53.182;6.284;2022-07-24T00:09:56;16.80;99.90
52159;DHT22;38145;53.182;6.284;2022-07-24T00:12:23;16.80;99.90
52159;DHT22;38145;53.182;6.284;2022-07-24T00:14:50;16.80;99.90
52159;DHT22;38145;53.182;6.284;2022-07-24T00:17:16;16.80;99.90
52159;DHT22;38145;53.182;6.284;2022-07-24T00:19:42;16.80;99.90
52159;DHT22;38145;53.182;6.284;2022-07-24T00:22:08;16.70;99.90
52159;DHT22;38145;53.182;6.284;2022-07-24T00:24:35;16.70;99.90
52159;DHT22;38145;53.182;6.284;2022-07-24T00:27:01;16.70;99.90
52159;DHT22;38145;53.182;6.284;2022-07-24T00:29:28;16.70;99.90
52159;DHT22;38145;53.182;6.284;2022-07-24T00:31:54;16.70;99.90
52159;DHT22;38145;53.182;6.284;2022-07-24T00:34:20;16.60;99.90
52159;DHT22;38145;53.182;6.284;2022-07-24T00:36:46;16.60;99.90
52159;DHT22;38145;53.182;6.284;2022-07-24T00:39:13;16.50;99.90
52159;DHT22;38145;53.182;6.284;2022-07-24T00:41:39;16.50;99.90
52159;DHT22;38145;53.182;6.284;2022-07-24T00:44:08;16.50;99.90
52159;DHT22;38145;53.182;6.284;2022-07-24T00:46:36;16.50;99.90
52159;DHT22;38145;53.182;6.284;2022-07-24T00:49:05;16.50;99.90
52159;DHT22;38145;53.182;6.284;2022-07-24T00:51:33;16.50;99.90
52159;DHT22;38145;53.182;6.284;2022-07-24T00:54:02;16.50;99.90
52159;DHT22;38145;53.182;6.284;2022-07-24T00:56:28;16.40;99.90
52159;DHT22;38145;53.182;6.284;2022-07-24T00:58:55;16.40;99.90
52159;DHT22;38145;53.182;6.284;2022-07-24T01:01:21;16.30;99.90
52159;DHT22;38145;53.182;6.284;2022-07-24T01:03:47;16.30;99.90
52159;DHT22;38145;53.182;6.284;2022-07-24T01:06:14;16.30;99.90
52159;DHT22;38145;53.182;6.284;2022-07-24T01:08:41;16.20;99.90
52159;DHT22;38145;53.182;6.284;2022-07-24T01:11:09;16.20;99.90
52159;DHT22;38145;53.182;6.284;2022-07-24T01:13:36;16.20;99.90
52159;DHT22;38145;53.182;6.284;2022-07-24T01:16:02;16.20;99.90
52159;DHT22;38145;53.182;6.284;2022-07-24T01:18:29;16.20;99.90
52159;DHT22;38145;53.182;6.284;2022-07-24T01:20:55;16.10;99.90
52159;DHT22;38145;53.182;6.284;2022-07-24T01:23:23;16.20;99.90
52159;DHT22;38145;53.182;6.284;2022-07-24T01:25:50;16.10;99.90
52159;DHT22;38145;53.182;6.284;2022-07-24T01:28:16;16.10;99.90
52159;DHT22;38145;53.182;6.284;2022-07-24T01:30:43;16.10;99.90
52159;DHT22;38145;53.182;6.284;2022-07-24T01:33:09;16.10;99.90
52159;DHT22;38145;53.182;6.284;2022-07-24T01:35:35;16.10;99.90
52159;DHT22;38145;53.182;6.284;2022-07-24T01:38:02;16.00;99.90
52159;DHT22;38145;53.182;6.284;2022-07-24T01:40:30;16.00;99.90
52159;DHT22;38145;53.182;6.284;2022-07-24T01:42:56;16.00;99.90
52159;DHT22;38145;53.182;6.284;2022-07-24T01:45:22;16.10;99.90
52159;DHT22;38145;53.182;6.284;2022-07-24T01:47:48;16.00;99.90
52159;DHT22;38145;53.182;6.284;2022-07-24T01:50:15;16.10;99.90
52159;DHT22;38145;53.182;6.284;2022-07-24T01:52:42;16.00;99.90
52159;DHT22;38145;53.182;6.284;2022-07-24T01:55:08;16.00;99.90
52159;DHT22;38145;53.182;6.284;2022-07-24T01:57:35;16.00;99.90
52159;DHT22;38145;53.182;6.284;2022-07-24T02:00:04;16.00;99.90
52159;DHT22;38145;53.182;6.284;2022-07-24T02:02:31;16.00;99.90
52159;DHT22;38145;53.182;6.284;2022-07-24T02:04:58;16.00;99.90
52159;DHT22;38145;53.182;6.284;2022-07-24T02:07:25;16.00;99.90
52159;DHT22;38145;53.182;6.284;2022-07-24T02:09:51;15.90;99.90
52159;DHT22;38145;53.182;6.284;2022-07-24T02:12:17;15.90;99.90
52159;DHT22;38145;53.182;6.284;2022-07-24T02:14:43;15.90;99.90
52159;DHT22;38145;53.182;6.284;2022-07-24T02:17:10;15.90;99.90
52159;DHT22;38145;53.182;6.284;2022-07-24T02:19:36;15.90;99.90
52159;DHT22;38145;53.182;6.284;2022-07-24T02:22:02;15.90;99.90
52159;DHT22;38145;53.182;6.284;2022-07-24T02:24:28;15.90;99.90
52159;DHT22;38145;53.182;6.284;2022-07-24T02:26:54;15.80;99.90
52159;DHT22;38145;53.182;6.284;2022-07-24T02:29:20;15.80;99.90
52159;DHT22;38145;53.182;6.284;2022-07-24T02:31:47;15.80;99.90
52159;DHT22;38145;53.182;6.284;2022-07-24T02:34:13;15.70;99.90
52159;DHT22;38145;53.182;6.284;2022-07-24T02:36:39;15.70;99.90
52159;DHT22;38145;53.182;6.284;2022-07-24T02:39:05;15.80;99.90
52159;DHT22;38145;53.182;6.284;2022-07-24T02:41:32;15.70;99.90
52159;DHT22;38145;53.182;6.284;2022-07-24T02:43:58;15.70;99.90
52159;DHT22;38145;53.182;6.284;2022-07-24T02:46:24;15.80;99.90
52159;DHT22;38145;53.182;6.284;2022-07-24T02:48:51;15.70;99.90
52159;DHT22;38145;53.182;6.284;2022-07-24T02:51:17;15.70;99.90
52159;DHT22;38145;53.182;6.284;2022-07-24T02:53:43;15.70;99.90
52159;DHT22;38145;53.182;6.284;2022-07-24T02:56:09;15.70;99.90
52159;DHT22;38145;53.182;6.284;2022-07-24T02:58:36;15.70;99.90
52159;DHT22;38145;53.182;6.284;2022-07-24T03:01:02;15.70;99.90
52159;DHT22;38145;53.182;6.284;2022-07-24T03:03:28;15.70;99.90
52159;DHT22;38145;53.182;6.284;2022-07-24T03:05:54;15.70;99.90
52159;DHT22;38145;53.182;6.284;2022-07-24T03:08:21;15.70;99.90
52159;DHT22;38145;53.182;6.284;2022-07-24T03:10:47;15.70;99.90
52159;DHT22;38145;53.182;6.284;2022-07-24T03:13:13;15.70;99.90
52159;DHT22;38145;53.182;6.284;2022-07-24T03:15:41;15.70;99.90
52159;DHT22;38145;53.182;6.284;2022-07-24T03:18:07;15.70;99.90
52159;DHT22;38145;53.182;6.284;2022-07-24T03:20:33;15.60;99.90
52159;DHT22;38145;53.182;6.284;2022-07-24T03:22:59;15.70;99.90
52159;DHT22;38145;53.182;6.284;2022-07-24T03:25:27;15.70;99.90
52159;DHT22;38145;53.182;6.284;2022-07-24T03:27:53;15.70;99.90
52159;DHT22;38145;53.182;6.284;2022-07-24T03:30:20;15.70;99.90
52159;DHT22;38145;53.182;6.284;2022-07-24T03:32:47;15.70;99.90
52159;DHT22;38145;53.182;6.284;2022-07-24T03:35:13;15.70;99.90
52159;DHT22;38145;53.182;6.284;2022-07-24T03:37:39;15.70;99.90
52159;DHT22;38145;53.182;6.284;2022-07-24T03:40:07;15.70;99.90
52159;DHT22;38145;53.182;6.284;2022-07-24T03:42:33;15.70;99.90
52159;DHT22;38145;53.182;6.284;2022-07-24T03:45:00;15.70;99.90
52159;DHT22;38145;53.182;6.284;2022-07-24T03:47:28;15.70;99.90
52159;DHT22;38145;53.182;6.284;2022-07-24T03:49:55;15.70;99.90
52159;DHT22;38145;53.182;6.284;2022-07-24T03:52:21;15.60;99.90
52159;DHT22;38145;53.182;6.284;2022-07-24T03:54:47;15.70;99.90
52159;DHT22;38145;53.182;6.284;2022-07-24T03:57:13;15.70;99.90
52159;DHT22;38145;53.182;6.284;2022-07-24T03:59:40;15.60;99.90
52159;DHT22;38145;53.182;6.284;2022-07-24T04:02:06;15.60;99.90
52159;DHT22;38145;53.182;6.284;2022-07-24T04:04:32;15.70;99.90
52159;DHT22;38145;53.182;6.284;2022-07-24T04:06:58;15.70;99.90
52159;DHT22;38145;53.182;6.284;2022-07-24T04:09:24;15.60;99.90
52159;DHT22;38145;53.182;6.284;2022-07-24T04:11:51;15.70;99.90
52159;DHT22;38145;53.182;6.284;2022-07-24T04:14:17;15.60;99.90
52159;DHT22;38145;53.182;6.284;2022-07-24T04:16:43;15.60;99.90
52159;DHT22;38145;53.182;6.284;2022-07-24T04:19:09;15.60;99.90
52159;DHT22;38145;53.182;6.284;2022-07-24T04:21:36;15.70;99.90
52159;DHT22;38145;53.182;6.284;2022-07-24T04:24:04;15.60;99.90
52159;DHT22;38145;53.182;6.284;2022-07-24T04:26:30;15.60;99.90
52159;DHT22;38145;53.182;6.284;2022-07-24T04:28:57;15.50;99.90
52159;DHT22;38145;53.182;6.284;2022-07-24T04:31:23;15.50;99.90
52159;DHT22;38145;53.182;6.284;2022-07-24T04:33:56;15.60;99.90
52159;DHT22;38145;53.182;6.284;2022-07-24T04:36:24;15.60;99.90
52159;DHT22;38145;53.182;6.284;2022-07-24T04:38:52;15.60;99.90
52159;DHT22;38145;53.182;6.284;2022-07-24T04:41:21;15.60;99.90
52159;DHT22;38145;53.182;6.284;2022-07-24T04:43:49;15.60;99.90
52159;DHT22;38145;53.182;6.284;2022-07-24T04:46:17;15.60;99.90
52159;DHT22;38145;53.182;6.284;2022-07-24T04:48:43;15.60;99.90
52159;DHT22;38145;53.182;6.284;2022-07-24T04:51:11;15.60;99.90
52159;DHT22;38145;53.182;6.284;2022-07-24T04:53:40;15.70;99.90
52159;DHT22;38145;53.182;6.284;2022-07-24T04:56:07;15.70;99.90
52159;DHT22;38145;53.182;6.284;2022-07-24T04:58:44;15.70;99.90
52159;DHT22;38145;53.182;6.284;2022-07-24T05:01:11;15.70;99.90
52159;DHT22;38145;53.182;6.284;2022-07-24T05:03:41;15.70;99.90
52159;DHT22;38145;53.182;6.284;2022-07-24T05:06:09;15.80;99.90
52159;DHT22;38145;53.182;6.284;2022-07-24T05:08:37;15.80;99.90
52159;DHT22;38145;53.182;6.284;2022-07-24T05:11:05;15.80;99.90
52159;DHT22;38145;53.182;6.284;2022-07-24T05:13:32;15.70;99.90
52159;DHT22;38145;53.182;6.284;2022-07-24T05:16:03;15.70;99.90
52159;DHT22;38145;53.182;6.284;2022-07-24T05:18:44;15.80;99.90
52159;DHT22;38145;53.182;6.284;2022-07-24T05:21:11;15.80;99.90
52159;DHT22;38145;53.182;6.284;2022-07-24T05:23:38;15.90;99.90
52159;DHT22;38145;53.182;6.284;2022-07-24T05:26:18;15.90;99.90
52159;DHT22;38145;53.182;6.284;2022-07-24T05:28:45;15.90;99.90
52159;DHT22;38145;53.182;6.284;2022-07-24T05:31:11;15.90;99.90
52159;DHT22;38145;53.182;6.284;2022-07-24T05:33:37;16.00;99.90
52159;DHT22;38145;53.182;6.284;2022-07-24T05:36:04;16.10;99.90
52159;DHT22;38145;53.182;6.284;2022-07-24T05:38:31;16.10;99.90
52159;DHT22;38145;53.182;6.284;2022-07-24T05:40:59;16.10;99.90
52159;DHT22;38145;53.182;6.284;2022-07-24T05:43:25;16.10;99.90
52159;DHT22;38145;53.182;6.284;2022-07-24T05:45:51;16.10;99.90
52159;DHT22;38145;53.182;6.284;2022-07-24T05:48:17;16.20;99.90
52159;DHT22;38145;53.182;6.284;2022-07-24T05:50:44;16.30;99.90
52159;DHT22;38145;53.182;6.284;2022-07-24T05:53:10;16.30;99.90
52159;DHT22;38145;53.182;6.284;2022-07-24T05:55:36;16.40;99.90
52159;DHT22;38145;53.182;6.284;2022-07-24T05:58:02;16.40;99.90
52159;DHT22;38145;53.182;6.284;2022-07-24T06:00:29;16.40;99.90
52159;DHT22;38145;53.182;6.284;2022-07-24T06:02:56;16.60;99.90
52159;DHT22;38145;53.182;6.284;2022-07-24T06:05:22;16.60;99.90
52159;DHT22;38145;53.182;6.284;2022-07-24T06:07:48;16.70;99.90
52159;DHT22;38145;53.182;6.284;2022-07-24T06:10:14;16.80;99.90
52159;DHT22;38145;53.182;6.284;2022-07-24T06:12:40;16.90;99.90
52159;DHT22;38145;53.182;6.284;2022-07-24T06:15:08;16.90;99.90
52159;DHT22;38145;53.182;6.284;2022-07-24T06:17:34;17.10;99.90
52159;DHT22;38145;53.182;6.284;2022-07-24T06:20:00;17.20;99.90
52159;DHT22;38145;53.182;6.284;2022-07-24T06:22:26;17.20;99.90
52159;DHT22;38145;53.182;6.284;2022-07-24T06:24:51;17.40;99.90
52159;DHT22;38145;53.182;6.284;2022-07-24T06:27:17;17.40;99.90
52159;DHT22;38145;53.182;6.284;2022-07-24T06:29:43;17.50;99.90
52159;DHT22;38145;53.182;6.284;2022-07-24T06:32:09;17.70;99.90
52159;DHT22;38145;53.182;6.284;2022-07-24T06:34:35;17.70;99.90
52159;DHT22;38145;53.182;6.284;2022-07-24T06:37:00;17.80;99.90
52159;DHT22;38145;53.182;6.284;2022-07-24T06:39:26;17.90;99.90
52159;DHT22;38145;53.182;6.284;2022-07-24T06:41:52;18.00;99.90
52159;DHT22;38145;53.182;6.284;2022-07-24T06:44:18;18.00;99.90
52159;DHT22;38145;53.182;6.284;2022-07-24T06:46:43;18.10;99.90
52159;DHT22;38145;53.182;6.284;2022-07-24T06:49:11;18.30;99.90
52159;DHT22;38145;53.182;6.284;2022-07-24T06:51:38;18.50;99.90
52159;DHT22;38145;53.182;6.284;2022-07-24T06:54:04;18.60;99.90
52159;DHT22;38145;53.182;6.284;2022-07-24T06:56:30;18.70;99.90
52159;DHT22;38145;53.182;6.284;2022-07-24T06:58:56;18.80;99.90
52159;DHT22;38145;53.182;6.284;2022-07-24T07:01:21;18.90;99.90
52159;DHT22;38145;53.182;6.284;2022-07-24T07:03:52;19.00;99.90
52159;DHT22;38145;53.182;6.284;2022-07-24T07:06:18;19.20;99.90
52159;DHT22;38145;53.182;6.284;2022-07-24T07:08:44;19.20;99.90
52159;DHT22;38145;53.182;6.284;2022-07-24T07:11:09;19.20;99.90
52159;DHT22;38145;53.182;6.284;2022-07-24T07:13:35;19.40;99.90
52159;DHT22;38145;53.182;6.284;2022-07-24T07:16:01;19.50;99.90
52159;DHT22;38145;53.182;6.284;2022-07-24T07:18:28;19.80;99.90
52159;DHT22;38145;53.182;6.284;2022-07-24T07:20:53;20.30;99.90
52159;DHT22;38145;53.182;6.284;2022-07-24T07:23:23;20.80;99.90
52159;DHT22;38145;53.182;6.284;2022-07-24T07:25:49;21.20;99.90
52159;DHT22;38145;53.182;6.284;2022-07-24T07:28:16;21.30;99.90
52159;DHT22;38145;53.182;6.284;2022-07-24T07:30:42;21.20;99.90
52159;DHT22;38145;53.182;6.284;2022-07-24T07:33:09;21.10;99.90
52159;DHT22;38145;53.182;6.284;2022-07-24T07:35:36;21.00;99.90
52159;DHT22;38145;53.182;6.284;2022-07-24T07:38:03;21.00;99.90
52159;DHT22;38145;53.182;6.284;2022-07-24T07:40:32;20.90;99.90
52159;DHT22;38145;53.182;6.284;2022-07-24T07:43:00;20.90;99.90
52159;DHT22;38145;53.182;6.284;2022-07-24T07:45:28;20.80;99.90
52159;DHT22;38145;53.182;6.284;2022-07-24T07:47:55;20.80;99.90
52159;DHT22;38145;53.182;6.284;2022-07-24T07:50:21;20.80;99.90
52159;DHT22;38145;53.182;6.284;2022-07-24T07:52:48;20.90;99.90
52159;DHT22;38145;53.182;6.284;2022-07-24T07:55:14;21.00;99.90
52159;DHT22;38145;53.182;6.284;2022-07-24T07:57:41;21.30;99.90
52159;DHT22;38145;53.182;6.284;2022-07-24T08:00:10;21.90;99.90
52159;DHT22;38145;53.182;6.284;2022-07-24T08:02:39;22.10;99.90
52159;DHT22;38145;53.182;6.284;2022-07-24T08:05:06;22.20;99.90
52159;DHT22;38145;53.182;6.284;2022-07-24T08:07:33;22.20;99.90
52159;DHT22;38145;53.182;6.284;2022-07-24T08:10:00;22.20;99.90
52159;DHT22;38145;53.182;6.284;2022-07-24T08:12:26;22.20;99.90
52159;DHT22;38145;53.182;6.284;2022-07-24T08:14:52;22.20;99.90
52159;DHT22;38145;53.182;6.284;2022-07-24T08:17:18;22.20;99.90
52159;DHT22;38145;53.182;6.284;2022-07-24T08:19:44;22.30;99.90
52159;DHT22;38145;53.182;6.284;2022-07-24T08:22:11;22.40;99.90
52159;DHT22;38145;53.182;6.284;2022-07-24T08:24:38;22.40;99.90
52159;DHT22;38145;53.182;6.284;2022-07-24T08:27:05;22.30;99.90
52159;DHT22;38145;53.182;6.284;2022-07-24T08:29:31;22.20;99.90
52159;DHT22;38145;53.182;6.284;2022-07-24T08:31:58;22.20;99.90
52159;DHT22;38145;53.182;6.284;2022-07-24T08:34:24;22.30;99.90
52159;DHT22;38145;53.182;6.284;2022-07-24T08:36:50;22.30;99.90
52159;DHT22;38145;53.182;6.284;2022-07-24T08:39:16;22.30;99.90
52159;DHT22;38145;53.182;6.284;2022-07-24T08:41:43;22.30;99.90
52159;DHT22;38145;53.182;6.284;2022-07-24T08:44:10;22.30;99.90
52159;DHT22;38145;53.182;6.284;2022-07-24T08:46:38;22.40;99.90
52159;DHT22;38145;53.182;6.284;2022-07-24T08:49:10;22.50;99.90
52159;DHT22;38145;53.182;6.284;2022-07-24T08:51:39;22.60;99.90
52159;DHT22;38145;53.182;6.284;2022-07-24T08:54:07;22.70;99.90
52159;DHT22;38145;53.182;6.284;2022-07-24T08:56:38;22.80;99.90
52159;DHT22;38145;53.182;6.284;2022-07-24T08:59:04;22.80;99.90
52159;DHT22;38145;53.182;6.284;2022-07-24T09:01:31;22.90;99.90
52159;DHT22;38145;53.182;6.284;2022-07-24T09:03:57;23.00;99.90
52159;DHT22;38145;53.182;6.284;2022-07-24T09:06:23;23.30;99.90
52159;DHT22;38145;53.182;6.284;2022-07-24T09:08:59;23.80;99.90
52159;DHT22;38145;53.182;6.284;2022-07-24T09:11:26;24.00;99.90
52159;DHT22;38145;53.182;6.284;2022-07-24T09:14:00;24.20;99.90
52159;DHT22;38145;53.182;6.284;2022-07-24T09:16:46;24.10;99.90
52159;DHT22;38145;53.182;6.284;2022-07-24T09:19:13;24.40;99.90
52159;DHT22;38145;53.182;6.284;2022-07-24T09:21:41;24.90;99.90
52159;DHT22;38145;53.182;6.284;2022-07-24T09:24:13;25.20;99.90
52159;DHT22;38145;53.182;6.284;2022-07-24T09:26:54;25.20;99.90
52159;DHT22;38145;53.182;6.284;2022-07-24T09:29:24;25.20;99.90
52159;DHT22;38145;53.182;6.284;2022-07-24T09:31:58;25.30;99.90
52159;DHT22;38145;53.182;6.284;2022-07-24T09:34:25;25.50;99.90
52159;DHT22;38145;53.182;6.284;2022-07-24T09:37:01;25.40;99.90
52159;DHT22;38145;53.182;6.284;2022-07-24T09:39:30;25.40;99.90
52159;DHT22;38145;53.182;6.284;2022-07-24T09:41:58;25.40;99.90
52159;DHT22;38145;53.182;6.284;2022-07-24T09:44:25;25.60;99.90
52159;DHT22;38145;53.182;6.284;2022-07-24T09:47:01;25.90;99.90
52159;DHT22;38145;53.182;6.284;2022-07-24T09:49:29;25.80;99.90
52159;DHT22;38145;53.182;6.284;2022-07-24T09:52:13;25.60;99.90
52159;DHT22;38145;53.182;6.284;2022-07-24T09:54:42;25.50;99.90
52159;DHT22;38145;53.182;6.284;2022-07-24T09:59:47;25.50;99.90
52159;DHT22;38145;53.182;6.284;2022-07-24T10:02:15;25.40;99.90
52159;DHT22;38145;53.182;6.284;2022-07-24T10:04:43;25.40;99.90
52159;DHT22;38145;53.182;6.284;2022-07-24T10:07:11;25.40;99.90
52159;DHT22;38145;53.182;6.284;2022-07-24T10:09:41;25.30;99.90
52159;DHT22;38145;53.182;6.284;2022-07-24T10:12:13;25.20;99.90
52159;DHT22;38145;53.182;6.284;2022-07-24T10:14:40;25.20;99.90
52159;DHT22;38145;53.182;6.284;2022-07-24T10:17:10;25.50;99.90
52159;DHT22;38145;53.182;6.284;2022-07-24T10:19:40;25.80;99.90
52159;DHT22;38145;53.182;6.284;2022-07-24T10:22:11;26.10;99.90
52159;DHT22;38145;53.182;6.284;2022-07-24T10:24:45;26.20;99.90
52159;DHT22;38145;53.182;6.284;2022-07-24T10:27:27;26.40;99.90
52159;DHT22;38145;53.182;6.284;2022-07-24T10:29:56;26.50;99.90
52159;DHT22;38145;53.182;6.284;2022-07-24T10:32:24;26.90;99.90
52159;DHT22;38145;53.182;6.284;2022-07-24T10:35:16;27.10;99.90
52159;DHT22;38145;53.182;6.284;2022-07-24T10:38:05;27.10;99.90
52159;DHT22;38145;53.182;6.284;2022-07-24T10:40:48;26.90;99.90
52159;DHT22;38145;53.182;6.284;2022-07-24T10:43:17;26.70;99.90
52159;DHT22;38145;53.182;6.284;2022-07-24T10:45:46;26.50;99.90
52159;DHT22;38145;53.182;6.284;2022-07-24T10:51:06;26.80;99.90
52159;DHT22;38145;53.182;6.284;2022-07-24T10:56:19;27.00;99.90
52159;DHT22;38145;53.182;6.284;2022-07-24T10:59:01;27.10;99.90
52159;DHT22;38145;53.182;6.284;2022-07-24T11:01:36;27.20;99.90
52159;DHT22;38145;53.182;6.284;2022-07-24T11:04:24;27.20;99.90
52159;DHT22;38145;53.182;6.284;2022-07-24T11:06:53;27.20;99.90
52159;DHT22;38145;53.182;6.284;2022-07-24T11:09:21;27.30;99.90
52159;DHT22;38145;53.182;6.284;2022-07-24T11:14:22;27.50;99.90
52159;DHT22;38145;53.182;6.284;2022-07-24T11:16:50;27.70;99.90
52159;DHT22;38145;53.182;6.284;2022-07-24T11:21:45;27.50;99.90
52159;DHT22;38145;53.182;6.284;2022-07-24T11:29:17;27.50;99.90
52159;DHT22;38145;53.182;6.284;2022-07-24T11:31:45;27.60;99.90
52159;DHT22;38145;53.182;6.284;2022-07-24T11:34:12;27.50;99.90
52159;DHT22;38145;53.182;6.284;2022-07-24T11:36:44;27.60;99.90
52159;DHT22;38145;53.182;6.284;2022-07-24T11:39:11;27.50;99.90
52159;DHT22;38145;53.182;6.284;2022-07-24T11:41:50;27.50;99.90
52159;DHT22;38145;53.182;6.284;2022-07-24T11:44:25;27.60;99.90
52159;DHT22;38145;53.182;6.284;2022-07-24T11:46:52;27.50;99.90
52159;DHT22;38145;53.182;6.284;2022-07-24T11:49:19;27.50;99.90
52159;DHT22;38145;53.182;6.284;2022-07-24T11:51:48;27.50;99.90
52159;DHT22;38145;53.182;6.284;2022-07-24T11:54:22;27.50;99.90
52159;DHT22;38145;53.182;6.284;2022-07-24T11:56:48;27.70;99.90
52159;DHT22;38145;53.182;6.284;2022-07-24T11:59:25;27.60;99.90
52159;DHT22;38145;53.182;6.284;2022-07-24T12:01:55;27.60;99.90
52159;DHT22;38145;53.182;6.284;2022-07-24T12:04:22;27.60;99.90
52159;DHT22;38145;53.182;6.284;2022-07-24T12:06:49;27.50;99.90
52159;DHT22;38145;53.182;6.284;2022-07-24T12:09:15;27.70;99.90
52159;DHT22;38145;53.182;6.284;2022-07-24T12:11:42;27.70;99.90
52159;DHT22;38145;53.182;6.284;2022-07-24T12:14:17;27.80;99.90
52159;DHT22;38145;53.182;6.284;2022-07-24T12:16:50;27.70;99.90
52159;DHT22;38145;53.182;6.284;2022-07-24T12:19:19;27.70;99.90
52159;DHT22;38145;53.182;6.284;2022-07-24T12:21:47;27.60;99.90
52159;DHT22;38145;53.182;6.284;2022-07-24T12:24:14;27.60;99.90
52159;DHT22;38145;53.182;6.284;2022-07-24T12:26:50;27.60;99.90
52159;DHT22;38145;53.182;6.284;2022-07-24T12:29:17;27.70;99.90
52159;DHT22;38145;53.182;6.284;2022-07-24T12:31:44;27.80;99.90
52159;DHT22;38145;53.182;6.284;2022-07-24T12:34:11;27.90;99.90
52159;DHT22;38145;53.182;6.284;2022-07-24T12:36:38;27.80;99.90
52159;DHT22;38145;53.182;6.284;2022-07-24T12:39:06;27.70;99.90
52159;DHT22;38145;53.182;6.284;2022-07-24T12:41:43;27.70;99.90
52159;DHT22;38145;53.182;6.284;2022-07-24T12:44:10;27.60;99.90
52159;DHT22;38145;53.182;6.284;2022-07-24T12:46:40;27.70;99.90
52159;DHT22;38145;53.182;6.284;2022-07-24T12:49:12;27.60;99.90
52159;DHT22;38145;53.182;6.284;2022-07-24T12:51:48;27.70;99.90
52159;DHT22;38145;53.182;6.284;2022-07-24T12:54:19;27.80;99.90
52159;DHT22;38145;53.182;6.284;2022-07-24T12:56:48;27.70;99.90
52159;DHT22;38145;53.182;6.284;2022-07-24T12:59:28;27.80;99.90
52159;DHT22;38145;53.182;6.284;2022-07-24T13:01:57;27.90;99.90
52159;DHT22;38145;53.182;6.284;2022-07-24T13:04:25;28.00;99.90
52159;DHT22;38145;53.182;6.284;2022-07-24T13:06:54;28.10;99.90
52159;DHT22;38145;53.182;6.284;2022-07-24T13:09:22;28.20;99.90
52159;DHT22;38145;53.182;6.284;2022-07-24T13:11:51;28.20;99.90
52159;DHT22;38145;53.182;6.284;2022-07-24T13:14:19;28.10;99.90
52159;DHT22;38145;53.182;6.284;2022-07-24T13:16:47;28.10;99.30
52159;DHT22;38145;53.182;6.284;2022-07-24T13:19:15;28.10;99.90
52159;DHT22;38145;53.182;6.284;2022-07-24T13:21:42;28.10;99.90
52159;DHT22;38145;53.182;6.284;2022-07-24T13:24:11;28.20;99.90
52159;DHT22;38145;53.182;6.284;2022-07-24T13:26:42;28.20;99.90
52159;DHT22;38145;53.182;6.284;2022-07-24T13:29:09;28.20;99.90
52159;DHT22;38145;53.182;6.284;2022-07-24T13:31:39;28.20;99.90
52159;DHT22;38145;53.182;6.284;2022-07-24T13:34:07;28.20;98.60
52159;DHT22;38145;53.182;6.284;2022-07-24T13:36:35;28.10;99.60
52159;DHT22;38145;53.182;6.284;2022-07-24T13:39:03;28.10;99.90
52159;DHT22;38145;53.182;6.284;2022-07-24T13:41:31;28.10;99.20
52159;DHT22;38145;53.182;6.284;2022-07-24T13:43:57;28.10;99.70
52159;DHT22;38145;53.182;6.284;2022-07-24T13:46:24;28.00;99.10
52159;DHT22;38145;53.182;6.284;2022-07-24T13:48:50;28.00;99.30
52159;DHT22;38145;53.182;6.284;2022-07-24T13:51:18;28.00;99.90
52159;DHT22;38145;53.182;6.284;2022-07-24T13:53:45;28.10;99.90
52159;DHT22;38145;53.182;6.284;2022-07-24T13:56:12;28.10;99.90
52159;DHT22;38145;53.182;6.284;2022-07-24T13:58:39;28.10;99.60
52159;DHT22;38145;53.182;6.284;2022-07-24T14:01:08;28.10;99.60
52159;DHT22;38145;53.182;6.284;2022-07-24T14:03:35;28.10;99.30
52159;DHT22;38145;53.182;6.284;2022-07-24T14:06:05;28.00;98.60
52159;DHT22;38145;53.182;6.284;2022-07-24T14:08:32;28.00;99.40
52159;DHT22;38145;53.182;6.284;2022-07-24T14:10:59;28.00;99.90
52159;DHT22;38145;53.182;6.284;2022-07-24T14:13:26;28.10;99.90
52159;DHT22;38145;53.182;6.284;2022-07-24T14:15:53;28.10;99.30
52159;DHT22;38145;53.182;6.284;2022-07-24T14:18:21;28.10;99.10
52159;DHT22;38145;53.182;6.284;2022-07-24T14:20:48;28.10;99.10
52159;DHT22;38145;53.182;6.284;2022-07-24T14:23:15;28.10;99.20
52159;DHT22;38145;53.182;6.284;2022-07-24T14:25:43;28.10;98.30
52159;DHT22;38145;53.182;6.284;2022-07-24T14:28:12;28.10;98.60
52159;DHT22;38145;53.182;6.284;2022-07-24T14:30:39;28.10;98.10
52159;DHT22;38145;53.182;6.284;2022-07-24T14:33:07;28.10;98.40
52159;DHT22;38145;53.182;6.284;2022-07-24T14:35:35;28.10;98.80
52159;DHT22;38145;53.182;6.284;2022-07-24T14:38:02;28.10;98.70
52159;DHT22;38145;53.182;6.284;2022-07-24T14:40:29;28.10;97.50
52159;DHT22;38145;53.182;6.284;2022-07-24T14:42:56;28.10;97.70
52159;DHT22;38145;53.182;6.284;2022-07-24T14:45:23;28.20;98.20
52159;DHT22;38145;53.182;6.284;2022-07-24T14:47:49;28.20;98.40
52159;DHT22;38145;53.182;6.284;2022-07-24T14:50:16;28.20;97.70
52159;DHT22;38145;53.182;6.284;2022-07-24T14:52:43;28.10;96.70
52159;DHT22;38145;53.182;6.284;2022-07-24T14:55:10;28.10;96.60
52159;DHT22;38145;53.182;6.284;2022-07-24T14:57:37;28.00;96.90
52159;DHT22;38145;53.182;6.284;2022-07-24T15:00:07;28.00;97.20
52159;DHT22;38145;53.182;6.284;2022-07-24T15:02:35;27.90;97.00
52159;DHT22;38145;53.182;6.284;2022-07-24T15:05:02;28.00;98.70
52159;DHT22;38145;53.182;6.284;2022-07-24T15:07:29;28.00;98.30
52159;DHT22;38145;53.182;6.284;2022-07-24T15:09:56;28.00;97.60
52159;DHT22;38145;53.182;6.284;2022-07-24T15:12:23;28.00;98.70
52159;DHT22;38145;53.182;6.284;2022-07-24T15:14:50;28.00;99.20
52159;DHT22;38145;53.182;6.284;2022-07-24T15:17:16;28.00;98.00
52159;DHT22;38145;53.182;6.284;2022-07-24T15:19:44;28.00;98.50
52159;DHT22;38145;53.182;6.284;2022-07-24T15:22:10;28.10;99.30
52159;DHT22;38145;53.182;6.284;2022-07-24T15:24:37;28.00;98.10
52159;DHT22;38145;53.182;6.284;2022-07-24T15:27:04;28.10;97.90
52159;DHT22;38145;53.182;6.284;2022-07-24T15:29:30;28.10;97.50
52159;DHT22;38145;53.182;6.284;2022-07-24T15:31:57;28.10;97.60
52159;DHT22;38145;53.182;6.284;2022-07-24T15:34:24;28.10;98.40
52159;DHT22;38145;53.182;6.284;2022-07-24T15:36:50;28.10;97.90
52159;DHT22;38145;53.182;6.284;2022-07-24T15:39:16;28.10;97.80
52159;DHT22;38145;53.182;6.284;2022-07-24T15:41:42;28.10;98.20
52159;DHT22;38145;53.182;6.284;2022-07-24T15:44:09;28.10;97.70
52159;DHT22;38145;53.182;6.284;2022-07-24T15:46:35;28.00;97.40
52159;DHT22;38145;53.182;6.284;2022-07-24T15:49:04;28.00;97.90
52159;DHT22;38145;53.182;6.284;2022-07-24T15:51:32;28.00;97.60